Rosedale, VA (24280)

3:37 AM EDT on August 31, 2014 (GMT -0400)
Poor Valley | Change Station
CLOSE
Current Station
Personal Weather Station
Location: Saltville, VA
Elevation: 1850 ft
Nearby Weather Stations

Elev 1850 ft 36.87 °N, 81.85 °W | Updated 1 minute ago

Overcast
Overcast
68.7 °F
Feels Like 68.7 °F
N
0.0
Wind Variable Wind from WNW
Gusts 1.0 mph

Today
High -- | Low -- °F
--% Chance of Precip.
Yesterday
High -- | Low -- °F
Precip. -- in
6:57 AM 7:57 PM
Waxing Crescent, 28% visible
Pressure 30.22 in
Visibility 10.0 miles
Clouds Mostly Cloudy 3900 ft
Overcast 4700 ft
Dew Point -1 °F
Humidity 6%
Rainfall 0.18 in
Snow Depth Not available.
UV 0 out of 12
Pollen 9.30 out of 12
Air Quality Not available.
Flu Activity Not available.
METAR KJFZ 310715Z AUTO 24005KT 10SM BKN039 OVC047 25/18 A3022 RMK AO2 LTG DSNT SW T02480181

More Conditions Fewer Conditions

Pressure 30.22 in
Visibility 10.0 miles
Clouds Mostly Cloudy 3900 ft
Overcast 4700 ft
Dew Point -1 °F
Humidity 6%
Rainfall 0.18 in
Snow Depth Not available.
UV 0 out of 12
Pollen 9.30 out of 12
Air Quality Not available.
Flu Activity Not available.
METAR KJFZ 310715Z AUTO 24005KT 10SM BKN039 OVC047 25/18 A3022 RMK AO2 LTG DSNT SW T02480181

More Conditions Fewer Conditions

10-Day Weather Forecast

Almanac

Astronomy

Aug. 31, 2014 Rise Set
Actual Time 6:57 AM EDT 7:57 PM EDT
Civil Twilight 6:31 AM EDT 8:24 PM EDT
Nautical Twilight 5:59 AM EDT 8:55 PM EDT
Astronomical Twilight 5:26 AM EDT 9:28 PM EDT
Moon 12:33 PM EDT 11:20 PM EDT
Length of Visible Light 13h 53m
Length of Day
12h 59m
Tomorrow will be 2m 15s shorter.
Waxing Crescent, 28% of the Moon is Illuminated
Today
Waxing Crescent
Sep 2
First Quarter
Sep 8
Full
Sep 15
Last Quarter
Sep 24
New

Today's Extremes

State Highs State Lows

Community

WunderPhotos

Upload Photos

1,748,809 photos uploaded!

Nearby

Snow Depth

Station Depth Elevation
No new snow has been reported.

Earthquake Activity

City Distance Mag. Time & Date
No recent earthquake activity has been reported nearby.
Minimum magnitude displayed is 2.5.

Coastal Water Temperatures

Place Temperature
No Stations Reporting

Nearby Weather Stations